Time;durP1;ratioP1;P1;durP2;ratioP2;P2;SDS_P1;SDS_P2;PMS_P1;PMS_P2;Temp;Humidity;BMP_temperature;BMP_pressure;BME280_temperature;BME280_humidity;BME280_pressure;Samples;Min_cycle;Max_cycle;Signal;HPM_P1;HPM_P2
2022/05/11 00:00:59;;;;;;;6.70;3.60;;;18.00;25.70;;;;;;5054956;28;20435;-76
2022/05/11 00:03:24;;;;;;;6.82;3.30;;;18.00;25.70;;;;;;5054714;28;20403;-76
2022/05/11 00:05:50;;;;;;;9.02;3.80;;;18.10;25.40;;;;;;5055222;28;20391;-78
2022/05/11 00:08:17;;;;;;;8.93;4.07;;;18.00;25.90;;;;;;5054901;28;20414;-77
2022/05/11 00:10:42;;;;;;;4.90;3.65;;;17.90;25.80;;;;;;5056658;28;20395;-75
2022/05/11 00:13:08;;;;;;;5.55;3.90;;;17.90;26.00;;;;;;5058733;28;20398;-76
2022/05/11 00:15:35;;;;;;;10.27;3.30;;;17.90;26.30;;;;;;5057804;28;20914;-76
2022/05/11 00:18:01;;;;;;;5.67;3.00;;;17.90;26.60;;;;;;5058762;28;20391;-76
2022/05/11 00:20:27;;;;;;;7.03;3.47;;;17.90;26.40;;;;;;5058726;28;20402;-75
2022/05/11 00:22:54;;;;;;;10.83;3.30;;;17.80;26.30;;;;;;5058449;28;20387;-78
2022/05/11 00:25:20;;;;;;;5.53;3.80;;;17.80;27.00;;;;;;5058615;28;20437;-76
2022/05/11 00:27:46;;;;;;;6.88;3.60;;;18.20;25.90;;;;;;5059658;28;20414;-76
2022/05/11 00:30:12;;;;;;;9.43;3.50;;;18.30;25.30;;;;;;5058482;28;20466;-76
2022/05/11 00:32:38;;;;;;;5.80;3.50;;;18.10;25.80;;;;;;5058458;28;20411;-76
2022/05/11 00:35:04;;;;;;;6.40;3.40;;;17.90;26.60;;;;;;5056977;28;20476;-75
2022/05/11 00:37:30;;;;;;;9.63;3.50;;;17.90;27.50;;;;;;5052273;28;20431;-77
2022/05/11 00:39:58;;;;;;;9.70;3.90;;;17.80;27.70;;;;;;5041780;28;20442;-78
2022/05/11 00:42:24;;;;;;;9.07;3.72;;;17.80;28.00;;;;;;5039044;28;20474;-78
2022/05/11 00:44:49;;;;;;;6.28;3.30;;;17.70;28.20;;;;;;5039060;28;20395;-78
2022/05/11 00:47:24;;;;;;;4.67;3.60;;;17.70;28.60;;;;;;5040785;28;20468;-77
2022/05/11 00:49:55;;;;;;;5.05;3.50;;;17.70;28.40;;;;;;5040819;28;20406;-78
2022/05/11 00:52:24;;;;;;;8.40;3.50;;;17.70;28.70;;;;;;5042316;28;20473;-77
2022/05/11 00:55:02;;;;;;;5.15;3.63;;;17.80;28.70;;;;;;5042838;28;20421;-76
2022/05/11 00:57:58;;;;;;;6.80;3.40;;;17.80;27.90;;;;;;5042007;28;20491;-77
2022/05/11 01:00:26;;;;;;;6.07;3.75;;;17.80;27.90;;;;;;5045965;28;20402;-77
2022/05/11 01:03:01;;;;;;;6.80;3.53;;;17.80;28.50;;;;;;5055933;28;20892;-76
2022/05/11 01:05:27;;;;;;;4.93;3.70;;;17.70;29.10;;;;;;5045051;28;20426;-77
2022/05/11 01:07:54;;;;;;;5.53;3.37;;;17.70;29.20;;;;;;5043228;28;20482;-77
2022/05/11 01:10:20;;;;;;;8.57;3.80;;;17.70;29.30;;;;;;5035194;28;20394;-77
2022/05/11 01:12:49;;;;;;;6.97;3.70;;;17.70;29.10;;;;;;5034613;28;20394;-79
2022/05/11 01:15:17;;;;;;;7.88;3.78;;;17.70;28.90;;;;;;5033852;28;20398;-77
2022/05/11 01:17:43;;;;;;;7.03;4.18;;;17.80;29.20;;;;;;5035529;28;20492;-79
2022/05/11 01:20:16;;;;;;;6.03;4.10;;;17.80;30.00;;;;;;5038158;28;20493;-79
2022/05/11 01:22:53;;;;;;;5.82;4.00;;;17.80;28.80;;;;;;5038265;28;20461;-79
2022/05/11 01:25:19;;;;;;;6.68;3.50;;;17.70;28.90;;;;;;5048914;28;20437;-78
2022/05/11 01:27:46;;;;;;;8.68;4.13;;;17.80;28.60;;;;;;5036524;28;20391;-78
2022/05/11 01:30:14;;;;;;;10.88;4.10;;;17.80;28.50;;;;;;5037654;28;20806;-77
2022/05/11 01:32:42;;;;;;;6.50;3.90;;;17.80;29.00;;;;;;5038665;28;20481;-77
2022/05/11 01:35:27;;;;;;;10.02;4.20;;;17.70;29.50;;;;;;5037713;28;20410;-77
2022/05/11 01:38:12;;;;;;;6.03;4.60;;;17.60;29.90;;;;;;5037869;28;20427;-78
2022/05/11 01:40:37;;;;;;;9.13;3.70;;;17.40;30.10;;;;;;5033452;28;20384;-78
2022/05/11 01:43:03;;;;;;;6.28;3.90;;;17.30;30.70;;;;;;5042350;28;20418;-76
2022/05/11 01:45:29;;;;;;;7.60;3.72;;;17.30;31.30;;;;;;5043249;28;20411;-76
2022/05/11 01:47:56;;;;;;;10.82;4.22;;;17.20;31.20;;;;;;5034297;28;20399;-79
2022/05/11 01:50:22;;;;;;;7.80;4.50;;;17.10;31.40;;;;;;5034399;28;20414;-77
2022/05/11 01:52:48;;;;;;;7.85;4.20;;;17.10;31.40;;;;;;5028399;28;20387;-77
2022/05/11 01:55:14;;;;;;;6.78;3.70;;;17.10;32.30;;;;;;5034077;28;20391;-76
2022/05/11 01:57:39;;;;;;;7.63;4.30;;;17.10;31.80;;;;;;5034633;28;20816;-77
2022/05/11 02:00:07;;;;;;;8.73;4.03;;;17.00;32.10;;;;;;5054485;28;20464;-77
2022/05/11 02:02:32;;;;;;;6.28;4.30;;;17.00;32.20;;;;;;5056402;28;20394;-78
2022/05/11 02:07:51;;;;;;;10.07;4.23;;;17.00;32.30;;;;;;5037740;28;20418;-78
2022/05/11 02:10:25;;;;;;;8.20;4.05;;;17.00;32.20;;;;;;5044644;28;20967;-80
2022/05/11 02:12:51;;;;;;;9.10;4.00;;;17.00;32.00;;;;;;5038695;28;20466;-79
2022/05/11 02:15:18;;;;;;;5.00;4.40;;;17.00;32.10;;;;;;5037736;28;20478;-78
2022/05/11 02:17:45;;;;;;;6.43;3.80;;;17.00;32.20;;;;;;5035843;28;21251;-78
2022/05/11 02:20:12;;;;;;;7.18;4.10;;;16.90;32.70;;;;;;5043802;28;20411;-76
2022/05/11 02:22:38;;;;;;;8.05;4.05;;;16.90;32.60;;;;;;5046559;28;20399;-80
2022/05/11 02:25:04;;;;;;;8.85;4.40;;;16.90;33.10;;;;;;5039820;28;20399;-78
2022/05/11 02:27:31;;;;;;;7.43;4.37;;;16.90;33.10;;;;;;5039503;28;20433;-79
2022/05/11 02:29:57;;;;;;;8.43;4.30;;;16.90;33.10;;;;;;5044094;28;20482;-79
2022/05/11 02:32:23;;;;;;;5.90;4.80;;;17.00;33.10;;;;;;5045366;28;20405;-81
2022/05/11 02:37:33;;;;;;;8.27;4.57;;;16.90;33.60;;;;;;5040993;28;20414;-79
2022/05/11 02:39:59;;;;;;;8.35;4.20;;;16.90;34.30;;;;;;5041572;28;20415;-78
2022/05/11 02:42:25;;;;;;;7.88;4.82;;;16.80;34.30;;;;;;5039547;28;20478;-78
2022/05/11 02:44:50;;;;;;;10.10;4.82;;;16.80;34.70;;;;;;5038055;28;20422;-80
2022/05/11 02:47:16;;;;;;;9.02;5.20;;;16.70;35.40;;;;;;5037022;28;20403;-79
2022/05/11 02:49:41;;;;;;;8.10;4.20;;;16.70;35.60;;;;;;5039655;28;20399;-78
2022/05/11 02:52:07;;;;;;;11.97;4.80;;;16.70;35.50;;;;;;5044098;28;20437;-78
2022/05/11 02:54:33;;;;;;;5.97;4.40;;;16.70;35.20;;;;;;5048853;28;20414;-80
2022/05/11 02:56:58;;;;;;;9.63;4.57;;;16.80;35.30;;;;;;5046089;28;20495;-78
2022/05/11 02:59:24;;;;;;;7.90;4.43;;;16.80;35.00;;;;;;5045623;28;20405;-79
2022/05/11 03:01:51;;;;;;;6.37;4.60;;;16.70;35.00;;;;;;5049839;28;20399;-77
2022/05/11 03:04:18;;;;;;;8.23;4.78;;;16.70;35.00;;;;;;5048592;28;20387;-79
2022/05/11 03:06:47;;;;;;;11.20;4.63;;;16.70;34.70;;;;;;5038822;28;20391;-79
2022/05/11 03:09:14;;;;;;;10.57;4.70;;;16.70;34.80;;;;;;5038369;28;20403;-78
2022/05/11 03:11:41;;;;;;;8.70;4.80;;;16.70;35.00;;;;;;5035689;28;20406;-79
2022/05/11 03:14:06;;;;;;;12.15;4.75;;;16.60;35.00;;;;;;5035841;28;20814;-79
2022/05/11 03:16:32;;;;;;;7.45;4.90;;;16.60;35.40;;;;;;5036239;28;20395;-78
2022/05/11 03:18:59;;;;;;;7.93;4.83;;;16.50;35.70;;;;;;5041897;28;20468;-79
2022/05/11 03:21:25;;;;;;;9.27;4.57;;;16.50;36.20;;;;;;5044674;28;20467;-78
2022/05/11 03:23:51;;;;;;;8.30;4.47;;;16.40;36.40;;;;;;5046645;28;20865;-77
2022/05/11 03:26:16;;;;;;;7.67;4.53;;;16.40;36.80;;;;;;5047918;28;20402;-77
2022/05/11 03:28:42;;;;;;;8.33;4.30;;;16.30;37.20;;;;;;5046385;28;20379;-80
2022/05/11 03:31:08;;;;;;;11.70;5.28;;;16.30;37.30;;;;;;5043708;28;20469;-77
2022/05/11 03:36:18;;;;;;;11.93;5.40;;;16.40;38.40;;;;;;5048048;28;20428;-77
2022/05/11 03:38:44;;;;;;;13.07;6.95;;;16.40;38.00;;;;;;5047769;28;20490;-77
2022/05/11 03:41:10;;;;;;;9.52;6.15;;;16.40;38.90;;;;;;5034274;28;20430;-75
2022/05/11 03:43:35;;;;;;;9.65;5.50;;;16.40;38.00;;;;;;5032922;28;20461;-76
2022/05/11 03:46:01;;;;;;;11.00;4.90;;;16.40;38.50;;;;;;5035460;28;20478;-76
2022/05/11 03:48:26;;;;;;;9.33;5.77;;;16.40;38.80;;;;;;5038438;28;20407;-76
2022/05/11 03:50:52;;;;;;;7.78;4.85;;;16.40;38.30;;;;;;5037656;28;20395;-76
2022/05/11 03:53:18;;;;;;;7.72;5.65;;;16.30;38.70;;;;;;5037670;28;20902;-75
2022/05/11 03:55:44;;;;;;;10.35;5.32;;;16.30;39.20;;;;;;5040143;28;20391;-75
2022/05/11 03:58:10;;;;;;;8.80;5.60;;;16.20;39.80;;;;;;5043793;28;20438;-76
2022/05/11 04:00:36;;;;;;;9.53;5.50;;;16.20;40.90;;;;;;5036824;28;20748;-76
2022/05/11 04:03:02;;;;;;;9.43;5.57;;;16.10;41.70;;;;;;5037009;28;20421;-75
2022/05/11 04:05:28;;;;;;;11.95;5.55;;;16.10;41.90;;;;;;5038167;28;20386;-76
2022/05/11 04:07:53;;;;;;;9.88;5.10;;;16.10;42.40;;;;;;5039484;28;20405;-73
2022/05/11 04:10:19;;;;;;;11.15;5.82;;;16.10;42.40;;;;;;5040044;28;20403;-74
2022/05/11 04:12:45;;;;;;;11.52;6.20;;;16.10;42.90;;;;;;5039089;28;20782;-76
2022/05/11 04:15:12;;;;;;;12.55;5.57;;;16.10;43.00;;;;;;5042170;28;20445;-74
2022/05/11 04:17:37;;;;;;;8.52;5.60;;;16.10;43.00;;;;;;5039705;28;20430;-76
2022/05/11 04:20:05;;;;;;;8.35;5.43;;;16.10;43.20;;;;;;5038698;28;20415;-74
2022/05/11 04:22:31;;;;;;;13.80;5.40;;;16.00;43.40;;;;;;5040043;28;20883;-76
2022/05/11 04:24:57;;;;;;;11.27;5.90;;;16.00;44.10;;;;;;5038307;28;20406;-76
2022/05/11 04:27:23;;;;;;;11.55;5.50;;;16.00;44.80;;;;;;5040512;28;20755;-75
2022/05/11 04:29:49;;;;;;;7.60;5.47;;;15.90;45.10;;;;;;5039882;28;20437;-75
2022/05/11 04:32:17;;;;;;;7.43;5.70;;;16.00;45.40;;;;;;5039194;28;20395;-75
2022/05/11 04:34:43;;;;;;;10.77;5.72;;;16.00;45.00;;;;;;5044973;28;20422;-75
2022/05/11 04:37:11;;;;;;;10.43;6.13;;;16.10;44.80;;;;;;5042477;28;20844;-74
2022/05/11 04:39:36;;;;;;;20.20;6.80;;;16.20;44.40;;;;;;5037889;28;20414;-75
2022/05/11 04:42:02;;;;;;;13.13;5.97;;;16.30;43.70;;;;;;5037959;28;20760;-75
2022/05/11 04:44:28;;;;;;;11.15;6.30;;;16.40;43.10;;;;;;5036789;28;20868;-76
2022/05/11 04:46:54;;;;;;;9.87;6.60;;;16.50;42.90;;;;;;5038178;28;20543;-77
2022/05/11 04:49:20;;;;;;;10.30;6.20;;;16.60;42.50;;;;;;5040250;28;20391;-76
2022/05/11 04:51:47;;;;;;;9.77;6.10;;;16.70;41.70;;;;;;5038040;28;20406;-75
2022/05/11 04:54:13;;;;;;;14.63;6.07;;;16.70;41.40;;;;;;5046790;28;20407;-75
2022/05/11 04:56:39;;;;;;;11.85;7.07;;;16.70;41.60;;;;;;5038726;28;20403;-74
2022/05/11 04:59:08;;;;;;;12.20;6.70;;;16.70;41.60;;;;;;5038091;28;20441;-75
2022/05/11 05:01:35;;;;;;;20.52;7.50;;;16.80;41.40;;;;;;5039008;28;20427;-74
2022/05/11 05:04:01;;;;;;;15.55;6.43;;;16.80;41.80;;;;;;5034424;28;20761;-75
2022/05/11 05:06:32;;;;;;;11.35;6.90;;;16.70;42.00;;;;;;5041221;28;20402;-73
2022/05/11 05:09:02;;;;;;;11.25;6.75;;;16.70;41.80;;;;;;5040165;28;20498;-74
2022/05/11 05:11:29;;;;;;;11.55;6.90;;;16.60;42.10;;;;;;5045780;28;20462;-75
2022/05/11 05:13:55;;;;;;;13.63;6.88;;;16.60;42.60;;;;;;5049662;28;20406;-75
2022/05/11 05:16:21;;;;;;;11.85;6.63;;;16.60;43.80;;;;;;5044299;28;20903;-76
2022/05/11 05:18:47;;;;;;;13.68;7.57;;;16.50;43.60;;;;;;5043747;28;20415;-76
2022/05/11 05:21:12;;;;;;;12.43;7.80;;;16.60;43.50;;;;;;5043829;28;20426;-75
2022/05/11 05:23:38;;;;;;;15.55;7.90;;;16.60;43.60;;;;;;5042805;28;20498;-76
2022/05/11 05:26:03;;;;;;;12.43;7.27;;;16.70;43.10;;;;;;5042396;28;20403;-75
2022/05/11 05:31:18;;;;;;;12.30;7.85;;;16.90;42.60;;;;;;5047000;28;20414;-76
2022/05/11 05:33:43;;;;;;;15.27;7.65;;;17.00;41.30;;;;;;5047172;28;20426;-76
2022/05/11 05:36:10;;;;;;;11.53;7.73;;;17.10;41.10;;;;;;5043124;28;20490;-76
2022/05/11 05:38:38;;;;;;;13.40;8.30;;;17.10;41.30;;;;;;5043348;28;20403;-74
2022/05/11 05:41:08;;;;;;;13.90;7.88;;;17.20;41.20;;;;;;5044599;28;20784;-75
2022/05/11 05:43:34;;;;;;;16.50;8.60;;;17.20;40.90;;;;;;5042199;28;20414;-76
2022/05/11 05:46:00;;;;;;;21.23;9.30;;;17.40;40.70;;;;;;5042138;28;20399;-78
2022/05/11 05:48:25;;;;;;;15.67;8.37;;;17.50;40.50;;;;;;5042895;28;20469;-73
2022/05/11 05:50:52;;;;;;;16.60;8.85;;;17.50;39.40;;;;;;5046790;28;20403;-73
2022/05/11 05:53:19;;;;;;;13.03;8.37;;;17.60;38.60;;;;;;5041831;28;20976;-74
2022/05/11 05:55:49;;;;;;;15.95;8.65;;;17.70;38.50;;;;;;5040450;28;20403;-74
2022/05/11 05:58:17;;;;;;;22.63;9.80;;;17.70;38.40;;;;;;5037006;28;20767;-74
2022/05/11 06:00:44;;;;;;;19.77;9.57;;;17.90;35.90;;;;;;5037560;28;20445;-77
2022/05/11 06:03:12;;;;;;;15.57;9.50;;;17.90;34.90;;;;;;5037118;28;20395;-76
2022/05/11 06:05:38;;;;;;;19.30;9.60;;;18.00;34.50;;;;;;5036125;28;20391;-78
2022/05/11 06:08:07;;;;;;;17.50;10.18;;;18.10;34.10;;;;;;5036812;28;20423;-76
2022/05/11 06:10:35;;;;;;;19.27;10.50;;;18.20;33.90;;;;;;5044045;28;20398;-75
2022/05/11 06:13:01;;;;;;;25.38;11.50;;;18.30;32.60;;;;;;5034657;28;20450;-76
2022/05/11 06:15:26;;;;;;;18.60;10.48;;;18.50;32.30;;;;;;5035953;28;20848;-76
2022/05/11 06:17:52;;;;;;;19.30;10.20;;;18.50;32.20;;;;;;5035153;28;20395;-77
2022/05/11 06:20:18;;;;;;;21.03;10.50;;;18.50;32.40;;;;;;5033184;28;20528;-75
2022/05/11 06:22:44;;;;;;;21.40;11.10;;;18.60;31.90;;;;;;5033931;28;20391;-79
2022/05/11 06:25:09;;;;;;;23.60;10.70;;;18.70;32.20;;;;;;5033304;28;20398;-75
2022/05/11 06:27:35;;;;;;;23.45;11.40;;;18.80;31.80;;;;;;5041317;28;20474;-78
2022/05/11 06:30:00;;;;;;;24.40;11.90;;;18.90;31.20;;;;;;5041530;28;20442;-76
2022/05/11 06:32:27;;;;;;;27.73;12.57;;;18.90;30.70;;;;;;5033483;28;20426;-76
2022/05/11 06:34:54;;;;;;;25.98;12.90;;;18.90;30.10;;;;;;5034172;28;20399;-77
2022/05/11 06:37:21;;;;;;;22.80;13.02;;;19.00;29.60;;;;;;5031532;28;20470;-76
2022/05/11 06:39:47;;;;;;;17.73;12.20;;;19.10;29.30;;;;;;5035715;28;20411;-78
2022/05/11 06:42:14;;;;;;;27.48;13.05;;;19.10;29.20;;;;;;5037096;28;20927;-77
2022/05/11 06:44:40;;;;;;;25.27;12.60;;;19.10;28.70;;;;;;5035861;28;20402;-77
2022/05/11 06:47:06;;;;;;;26.42;11.93;;;19.20;29.00;;;;;;5039996;28;20395;-77
2022/05/11 06:49:33;;;;;;;23.70;12.48;;;19.30;28.10;;;;;;5046444;28;20409;-76
2022/05/11 06:51:59;;;;;;;24.92;11.38;;;19.40;27.30;;;;;;5036812;28;20430;-76
2022/05/11 06:59:55;;;;;;;24.17;10.50;;;19.50;26.60;;;;;;5031251;28;20922;-75
2022/05/11 07:02:21;;;;;;;17.10;9.60;;;19.50;27.10;;;;;;5032584;28;20949;-74
2022/05/11 07:04:48;;;;;;;22.77;8.25;;;19.70;26.20;;;;;;5034285;28;20749;-76
2022/05/11 07:07:15;;;;;;;17.77;7.90;;;19.70;24.90;;;;;;5041109;28;20395;-75
2022/05/11 07:09:41;;;;;;;12.90;7.00;;;19.80;24.00;;;;;;5031351;28;20407;-77
2022/05/11 07:12:21;;;;;;;21.42;6.70;;;19.80;23.40;;;;;;5032269;28;20391;-76
2022/05/11 07:14:53;;;;;;;13.70;6.35;;;19.80;23.20;;;;;;5032526;28;20403;-75
2022/05/11 07:17:31;;;;;;;16.83;6.40;;;19.90;23.40;;;;;;5031611;28;20395;-77
2022/05/11 07:19:59;;;;;;;16.30;6.03;;;20.00;21.80;;;;;;5032310;28;20403;-75
2022/05/11 07:22:25;;;;;;;12.48;5.30;;;20.10;21.70;;;;;;5044042;28;20728;-77
2022/05/11 07:24:50;;;;;;;7.97;5.53;;;20.20;21.60;;;;;;5040998;28;20472;-75
2022/05/11 07:27:17;;;;;;;13.53;5.07;;;20.10;21.50;;;;;;5043203;28;20434;-76
2022/05/11 07:29:43;;;;;;;18.10;6.20;;;20.10;21.90;;;;;;5050715;28;20488;-81
2022/05/11 07:32:09;;;;;;;12.38;5.72;;;20.10;21.00;;;;;;5052584;28;20403;-77
2022/05/11 07:34:35;;;;;;;14.27;5.70;;;20.00;21.20;;;;;;5044884;28;20776;-76
2022/05/11 07:37:01;;;;;;;10.70;4.83;;;20.10;21.70;;;;;;5036206;28;20411;-76
2022/05/11 07:39:26;;;;;;;7.63;4.90;;;20.10;21.50;;;;;;5038404;28;20410;-74
2022/05/11 07:41:55;;;;;;;10.53;5.30;;;20.20;22.10;;;;;;5038306;28;20391;-75
2022/05/11 07:44:21;;;;;;;10.10;4.90;;;20.20;21.80;;;;;;5046886;28;20525;-75
2022/05/11 07:46:47;;;;;;;8.13;4.67;;;20.50;21.90;;;;;;5040626;28;20430;-75
2022/05/11 07:49:13;;;;;;;8.67;4.60;;;20.50;20.30;;;;;;5042005;28;20748;-75
2022/05/11 07:51:41;;;;;;;7.97;4.63;;;20.60;20.60;;;;;;5040945;28;20480;-78
2022/05/11 07:54:07;;;;;;;7.70;4.10;;;20.50;20.20;;;;;;5043025;28;20456;-79
2022/05/11 07:59:52;;;;;;;8.00;4.38;;;20.70;20.90;;;;;;5081122;23;20495;-75
2022/05/11 08:02:18;;;;;;;9.60;4.85;;;20.80;19.90;;;;;;5092108;28;20401;-75
2022/05/11 08:04:44;;;;;;;9.35;4.43;;;20.80;21.20;;;;;;5088018;28;20415;-74
2022/05/11 08:07:10;;;;;;;9.73;4.70;;;20.80;21.00;;;;;;5092861;28;20374;-75
2022/05/11 08:09:37;;;;;;;13.75;4.57;;;20.90;20.40;;;;;;5078652;28;20402;-76
2022/05/11 08:12:02;;;;;;;10.55;4.82;;;21.00;20.20;;;;;;5075979;28;20477;-75
2022/05/11 08:14:28;;;;;;;5.90;4.10;;;21.00;20.30;;;;;;5079698;28;20770;-76
2022/05/11 08:16:54;;;;;;;10.97;3.60;;;21.00;19.70;;;;;;5078768;28;20406;-76
2022/05/11 08:19:22;;;;;;;5.25;4.07;;;21.10;19.80;;;;;;5085167;28;20445;-76
2022/05/11 08:21:49;;;;;;;6.10;3.60;;;21.20;19.60;;;;;;5077871;28;20400;-76
2022/05/11 08:24:15;;;;;;;5.68;3.85;;;21.30;19.50;;;;;;5074805;28;20521;-77
2022/05/11 08:26:42;;;;;;;8.27;4.63;;;21.30;19.40;;;;;;5079447;28;20666;-77
2022/05/11 08:29:07;;;;;;;6.70;4.10;;;21.30;19.60;;;;;;5081480;28;20762;-74
2022/05/11 08:34:18;;;;;;;7.28;4.50;;;21.30;19.30;;;;;;5075220;28;20456;-74
2022/05/11 08:36:45;;;;;;;6.90;4.17;;;21.40;18.90;;;;;;5075503;28;20408;-73
2022/05/11 08:39:12;;;;;;;11.27;4.20;;;21.40;19.10;;;;;;5077119;28;20415;-75
2022/05/11 08:41:50;;;;;;;7.60;4.00;;;21.40;19.00;;;;;;5077090;28;20827;-75
2022/05/11 08:44:22;;;;;;;9.65;4.18;;;21.40;18.70;;;;;;5074629;28;20399;-75
2022/05/11 08:47:06;;;;;;;5.53;3.83;;;21.40;18.40;;;;;;5077831;28;20507;-77
2022/05/11 08:49:52;;;;;;;6.90;3.85;;;21.50;19.30;;;;;;5051919;28;20391;-74
2022/05/11 08:52:45;;;;;;;10.43;3.90;;;21.50;18.50;;;;;;5082796;28;20397;-74
2022/05/11 08:55:32;;;;;;;8.50;4.70;;;21.60;18.00;;;;;;5073623;28;20408;-73
2022/05/11 08:58:06;;;;;;;8.53;4.50;;;21.60;18.20;;;;;;5072530;28;20490;-74
2022/05/11 09:00:33;;;;;;;8.68;4.28;;;21.60;18.60;;;;;;5070083;28;20438;-76
2022/05/11 09:03:05;;;;;;;6.38;3.90;;;21.60;18.20;;;;;;5082192;28;20899;-73
2022/05/11 09:05:31;;;;;;;10.35;3.90;;;21.60;18.40;;;;;;5086832;28;20399;-73
2022/05/11 09:07:57;;;;;;;7.85;4.20;;;21.60;18.60;;;;;;5079140;28;20897;-74
2022/05/11 09:10:30;;;;;;;8.75;4.75;;;21.80;18.60;;;;;;5084798;28;20409;-74
2022/05/11 09:12:59;;;;;;;9.15;5.20;;;21.90;17.90;;;;;;5076943;28;20398;-75
2022/05/11 09:15:49;;;;;;;11.37;4.40;;;21.90;17.90;;;;;;5092288;28;20762;-74
2022/05/11 09:18:15;;;;;;;9.73;5.40;;;22.00;17.90;;;;;;5074580;28;20389;-73
2022/05/11 09:20:47;;;;;;;10.20;5.15;;;22.00;17.30;;;;;;5077279;28;20414;-74
2022/05/11 09:23:13;;;;;;;11.95;5.30;;;22.10;17.80;;;;;;5092098;28;20391;-73
2022/05/11 09:25:58;;;;;;;11.82;5.63;;;22.20;17.30;;;;;;5085808;28;20394;-75
2022/05/11 09:28:45;;;;;;;12.77;6.63;;;22.10;17.50;;;;;;5084312;28;20400;-73
2022/05/11 09:31:17;;;;;;;12.38;6.70;;;22.00;17.40;;;;;;5081526;28;20428;-74
2022/05/11 09:33:59;;;;;;;10.38;6.20;;;22.10;17.60;;;;;;5064068;28;20415;-74
2022/05/11 09:36:43;;;;;;;14.52;6.15;;;22.20;17.40;;;;;;5071984;28;20386;-73
2022/05/11 09:39:14;;;;;;;13.38;7.00;;;22.10;17.00;;;;;;5075076;28;20436;-73
2022/05/11 09:41:55;;;;;;;10.50;7.00;;;22.20;17.40;;;;;;5084167;28;20417;-74
2022/05/11 09:44:37;;;;;;;7.50;6.30;;;22.30;16.90;;;;;;5087918;28;20444;-73
2022/05/11 09:47:22;;;;;;;16.63;5.97;;;22.30;17.00;;;;;;5082150;28;20785;-73
2022/05/11 09:49:48;;;;;;;12.98;6.32;;;22.40;17.20;;;;;;5080715;28;20478;-74
2022/05/11 09:52:31;;;;;;;9.53;5.67;;;22.50;17.10;;;;;;5063716;28;20485;-73
2022/05/11 09:54:57;;;;;;;10.93;6.00;;;22.60;17.60;;;;;;5082000;28;20522;-73
2022/05/11 09:57:27;;;;;;;10.93;6.10;;;22.60;17.00;;;;;;5077698;28;20757;-73
2022/05/11 10:00:14;;;;;;;12.32;6.07;;;22.70;17.20;;;;;;5070456;28;20407;-74
2022/05/11 10:02:43;;;;;;;10.27;5.50;;;22.80;17.10;;;;;;5076145;28;20396;-73
2022/05/11 10:05:19;;;;;;;11.63;6.20;;;22.90;16.40;;;;;;5076827;28;20741;-74
2022/05/11 10:07:47;;;;;;;9.30;6.10;;;23.10;16.60;;;;;;5075973;28;20445;-73
2022/05/11 10:10:41;;;;;;;15.13;6.70;;;23.00;16.20;;;;;;5080467;28;20397;-73
2022/05/11 10:13:24;;;;;;;8.45;5.50;;;22.90;16.10;;;;;;5059348;28;20402;-73
2022/05/11 10:21:54;;;;;;;7.63;5.47;;;22.90;15.70;;;;;;5065332;28;20398;-74
2022/05/11 10:24:26;;;;;;;11.93;5.90;;;22.90;15.90;;;;;;5072051;28;20391;-75
2022/05/11 10:27:11;;;;;;;9.30;6.10;;;22.90;16.40;;;;;;5079864;28;20399;-74
2022/05/11 10:29:54;;;;;;;11.25;5.70;;;23.00;15.90;;;;;;5085616;28;20398;-74
2022/05/11 10:32:50;;;;;;;10.00;5.00;;;23.00;15.80;;;;;;5070472;28;20446;-73
2022/05/11 10:35:22;;;;;;;12.27;5.32;;;23.20;16.00;;;;;;5078677;28;20475;-74
2022/05/11 10:38:06;;;;;;;8.20;4.38;;;23.30;15.30;;;;;;5055010;28;20385;-73
2022/05/11 10:40:46;;;;;;;12.23;4.85;;;23.30;15.00;;;;;;5060808;28;20400;-74
2022/05/11 10:43:17;;;;;;;7.22;4.45;;;23.30;15.10;;;;;;5080583;28;20387;-74
2022/05/11 10:45:53;;;;;;;10.60;4.90;;;23.30;15.00;;;;;;5084713;28;20387;-73
2022/05/11 10:48:41;;;;;;;10.82;4.75;;;23.30;15.20;;;;;;5055283;28;20766;-73
2022/05/11 10:51:21;;;;;;;8.00;4.55;;;23.30;15.20;;;;;;5082501;28;20383;-75
2022/05/11 10:53:54;;;;;;;7.40;4.47;;;23.30;15.00;;;;;;5082361;28;20386;-74
2022/05/11 10:56:20;;;;;;;14.57;4.68;;;23.50;14.90;;;;;;5079986;28;20382;-73
2022/05/11 10:59:00;;;;;;;12.93;4.30;;;23.50;14.90;;;;;;5085654;28;20414;-73
2022/05/11 11:01:37;;;;;;;15.98;4.80;;;23.60;15.30;;;;;;5065847;28;20399;-74
2022/05/11 11:04:17;;;;;;;11.35;4.65;;;23.70;15.00;;;;;;5073837;28;20392;-73
2022/05/11 11:09:42;;;;;;;12.63;4.70;;;23.90;14.00;;;;;;5074381;28;20504;-74
2022/05/11 11:12:31;;;;;;;9.07;4.30;;;23.90;13.90;;;;;;5054455;28;20823;-73
2022/05/11 11:14:59;;;;;;;7.28;4.38;;;24.00;14.10;;;;;;5063277;28;20400;-73
2022/05/11 11:17:27;;;;;;;8.70;4.00;;;24.00;13.80;;;;;;5072015;28;20447;-74
2022/05/11 11:19:57;;;;;;;11.02;4.80;;;24.10;14.10;;;;;;5065412;28;20420;-74
2022/05/11 11:22:22;;;;;;;9.95;4.60;;;24.30;13.70;;;;;;5065702;28;20387;-73
2022/05/11 11:25:10;;;;;;;8.85;4.70;;;24.30;13.60;;;;;;5077177;28;20449;-74
2022/05/11 11:28:02;;;;;;;7.60;4.30;;;24.30;13.60;;;;;;5054895;28;20775;-73
2022/05/11 11:30:28;;;;;;;11.27;4.70;;;24.20;13.70;;;;;;5067927;28;20393;-75
2022/05/11 11:33:20;;;;;;;5.97;3.80;;;24.10;13.80;;;;;;5088299;28;20393;-75
2022/05/11 11:36:11;;;;;;;14.02;4.70;;;24.20;13.10;;;;;;5063945;28;20908;-74
2022/05/11 11:38:40;;;;;;;8.13;4.10;;;24.20;12.80;;;;;;5047933;28;20412;-75
2022/05/11 11:41:19;;;;;;;8.75;4.82;;;24.10;13.00;;;;;;5056221;28;20419;-73
2022/05/11 11:44:30;;;;;;;8.25;4.20;;;24.10;13.40;;;;;;5088774;28;20409;-75
2022/05/11 11:46:58;;;;;;;7.38;4.38;;;24.20;13.30;;;;;;5075960;28;20389;-74
2022/05/11 11:49:27;;;;;;;8.37;4.67;;;24.30;13.00;;;;;;5081354;28;20518;-74
2022/05/11 11:51:58;;;;;;;9.27;3.90;;;24.30;12.70;;;;;;5065375;28;20556;-74
2022/05/11 11:54:31;;;;;;;10.80;4.07;;;24.40;13.50;;;;;;5072816;28;20403;-74
2022/05/11 11:57:00;;;;;;;6.05;4.25;;;24.60;12.30;;;;;;5052816;28;20802;-75
2022/05/11 11:59:26;;;;;;;7.00;4.07;;;24.60;12.60;;;;;;5072638;28;20403;-75
2022/05/11 12:01:57;;;;;;;4.60;3.80;;;24.70;12.60;;;;;;5089186;28;20393;-75
2022/05/11 12:04:31;;;;;;;10.05;4.40;;;24.90;12.20;;;;;;5085762;28;20386;-74
2022/05/11 12:15:39;;;;;;;9.30;4.37;;;25.10;11.70;;;;;;5079457;28;20511;-74
2022/05/11 12:18:42;;;;;;;7.85;4.40;;;25.10;11.20;;;;;;5068972;28;20414;-73
2022/05/11 12:22:02;;;;;;;7.75;4.50;;;25.10;11.40;;;;;;4994932;28;20930;-73
2022/05/11 12:24:36;;;;;;;9.98;4.63;;;25.10;11.80;;;;;;4956600;29;20409;-75
2022/05/11 12:27:12;;;;;;;5.65;4.00;;;25.10;11.10;;;;;;4940583;29;20458;-73
2022/05/11 12:29:57;;;;;;;9.18;4.78;;;25.00;10.90;;;;;;5037406;28;20386;-75
2022/05/11 12:32:31;;;;;;;6.20;4.20;;;25.20;10.90;;;;;;5090598;28;20390;-74
2022/05/11 12:35:06;;;;;;;8.50;4.15;;;25.20;11.00;;;;;;5086467;28;20386;-75
2022/05/11 12:37:35;;;;;;;5.00;4.17;;;25.10;10.60;;;;;;5071919;28;20429;-75
2022/05/11 12:40:15;;;;;;;8.00;4.28;;;25.20;11.00;;;;;;5060481;28;20907;-73
2022/05/11 12:42:44;;;;;;;5.80;4.30;;;25.30;11.20;;;;;;5065676;28;20974;-74
2022/05/11 12:45:35;;;;;;;5.53;3.78;;;25.40;10.40;;;;;;5089739;28;20985;-75
2022/05/11 12:48:02;;;;;;;11.50;4.30;;;25.40;10.90;;;;;;5071126;28;20409;-74
2022/05/11 12:50:33;;;;;;;8.85;4.90;;;25.60;11.20;;;;;;5075328;28;20460;-73
2022/05/11 12:53:17;;;;;;;7.57;4.00;;;25.90;10.60;;;;;;5082362;28;20874;-75
2022/05/11 12:55:45;;;;;;;8.02;4.40;;;25.90;10.00;;;;;;5080431;28;20411;-73
2022/05/11 12:58:21;;;;;;;6.22;4.10;;;25.70;10.30;;;;;;5057951;28;20404;-74
2022/05/11 13:00:55;;;;;;;10.98;4.60;;;25.60;10.60;;;;;;5066477;28;20451;-74
2022/05/11 13:03:33;;;;;;;11.30;4.60;;;25.60;11.10;;;;;;5083742;28;20410;-74
2022/05/11 13:06:11;;;;;;;7.60;4.80;;;25.70;10.80;;;;;;5084969;28;20395;-75
2022/05/11 13:08:44;;;;;;;9.27;4.95;;;25.60;10.70;;;;;;5065206;28;20430;-74
2022/05/11 13:11:20;;;;;;;6.77;4.50;;;25.50;11.40;;;;;;5088181;28;20398;-74
2022/05/11 13:13:48;;;;;;;5.60;4.90;;;25.60;11.00;;;;;;5091069;28;20421;-75
2022/05/11 13:16:32;;;;;;;6.32;4.50;;;25.80;10.90;;;;;;5090436;28;20808;-74
2022/05/11 13:19:26;;;;;;;9.10;4.80;;;26.10;10.70;;;;;;5088814;28;20402;-74
2022/05/11 13:21:55;;;;;;;9.07;4.60;;;26.60;10.40;;;;;;5068778;28;20392;-74
2022/05/11 13:24:42;;;;;;;10.80;4.83;;;27.10;9.80;;;;;;5075760;28;20396;-74
2022/05/11 13:27:35;;;;;;;11.32;4.50;;;27.60;8.50;;;;;;5076355;28;20391;-74
2022/05/11 13:30:12;;;;;;;6.10;4.60;;;27.70;8.20;;;;;;5076992;28;20391;-75
2022/05/11 13:32:42;;;;;;;7.45;4.65;;;28.00;8.10;;;;;;5078582;28;20447;-75
2022/05/11 13:35:31;;;;;;;7.22;4.85;;;27.80;7.60;;;;;;5065129;28;20408;-73
2022/05/11 13:38:01;;;;;;;19.35;4.78;;;28.10;8.40;;;;;;5077566;28;20461;-75
2022/05/11 13:40:36;;;;;;;6.60;4.05;;;28.30;7.80;;;;;;5066014;28;20405;-75